| time (UTC) | temp C | wind direction | speed KPH | gust KPH | rain 1hr cm | rain 24hr cm | rain mn cm | humidity % | barometer mb |
| 20260906213416 | 19 | 310 | 3.2 | 4.8 | 0.00 | 0.00 | 0.00 | 73 | 1018.5 |
| 20260906212913 | 19 | 346 | 8.0 | 9.7 | 0.00 | 0.00 | 0.00 | 73 | 1018.4 |
| 20260906212409 | 20 | 345 | 4.8 | 4.8 | 0.00 | 0.00 | 0.00 | 72 | 1018.4 |
| 20260906211909 | 20 | 343 | 6.4 | 6.4 | 0.00 | 0.00 | 0.00 | 71 | 1018.4 |
| 20260906211404 | 20 | 343 | 9.7 | 11.3 | 0.00 | 0.00 | 0.00 | 70 | 1018.4 |
| 20260906210859 | 19 | 344 | 6.4 | 6.4 | 0.00 | 0.00 | 0.00 | 72 | 1018.5 |
| 20260906210355 | 20 | 352 | 4.8 | 6.4 | 0.00 | 0.00 | 0.00 | 72 | 1018.4 |
| 20260906205855 | 20 | 356 | 9.7 | 11.3 | 0.00 | 0.00 | 0.00 | 71 | 1018.5 |
| 20260906205351 | 20 | 354 | 9.7 | 11.3 | 0.00 | 0.00 | 0.00 | 70 | 1018.4 |
| 20260906204847 | 20 | 41 | 1.6 | 1.6 | 0.00 | 0.00 | 0.00 | 72 | 1018.5 |
| 20260906204345 | 20 | 20 | 6.4 | 9.7 | 0.00 | 0.00 | 0.00 | 72 | 1018.5 |
| 20260906203846 | 20 | 357 | 9.7 | 11.3 | 0.00 | 0.00 | 0.00 | 72 | 1018.4 |
| 20260906203341 | 20 | 23 | 9.7 | 11.3 | 0.00 | 0.00 | 0.00 | 71 | 1018.3 |
| 20260906202838 | 20 | 354 | 4.8 | 6.4 | 0.00 | 0.00 | 0.00 | 72 | 1018.3 |
| 20260906202337 | 20 | 12 | 9.7 | 11.3 | 0.00 | 0.00 | 0.00 | 72 | 1018.4 |
| 20260906201837 | 20 | 345 | 6.4 | 9.7 | 0.00 | 0.00 | 0.00 | 71 | 1018.3 |
| 20260906201332 | 20 | 20 | 12.9 | 16.1 | 0.00 | 0.00 | 0.00 | 71 | 1018.3 |
| 20260906200827 | 20 | 25 | 6.4 | 9.7 | 0.00 | 0.00 | 0.00 | 69 | 1018.4 |
| 20260906200323 | 20 | 356 | 11.3 | 14.5 | 0.00 | 0.00 | 0.00 | 69 | 1018.2 |
| 20260906195818 | 20 | 18 | 4.8 | 4.8 | 0.00 | 0.00 | 0.00 | 70 | 1018.4 |
| 20260906195315 | 20 | 355 | 6.4 | 9.7 | 0.00 | 0.00 | 0.00 | 73 | 1018.4 |
| 20260906194810 | 20 | 24 | 6.4 | 9.7 | 0.00 | 0.00 | 0.00 | 72 | 1018.4 |
| 20260906194306 | 20 | 18 | 9.7 | 11.3 | 0.00 | 0.00 | 0.00 | 69 | 1018.5 |
| 20260906193801 | 20 | 12 | 9.7 | 11.3 | 0.00 | 0.00 | 0.00 | 72 | 1018.6 |
| 20260906193255 | 19 | 5 | 8.0 | 9.7 | 0.00 | 0.00 | 0.00 | 76 | 1018.5 |
| 20260906192752 | 19 | 7 | 3.2 | 4.8 | 0.00 | 0.00 | 0.00 | 75 | 1018.5 |
| 20260906192251 | 20 | 344 | 12.9 | 14.5 | 0.00 | 0.00 | 0.00 | 74 | 1018.4 |
| 20260906191750 | 19 | 0 | 12.9 | 16.1 | 0.00 | 0.00 | 0.00 | 75 | 1018.6 |
| 20260906191245 | 20 | 348 | 3.2 | 3.2 | 0.00 | 0.00 | 0.00 | 73 | 1018.5 |
| 20260906190740 | 20 | 355 | 9.7 | 11.3 | 0.00 | 0.00 | 0.00 | 71 | 1018.5 |
| 20260906190240 | 20 | 304 | 3.2 | 3.2 | 0.00 | 0.00 | 0.00 | 70 | 1018.4 |
| 20260906185739 | 20 | 10 | 14.5 | 17.7 | 0.00 | 0.00 | 0.00 | 73 | 1018.5 |
| 20260906185238 | 19 | 16 | 6.4 | 11.3 | 0.00 | 0.00 | 0.00 | 74 | 1018.4 |
| 20260906184733 | 18 | 52 | 9.7 | 12.9 | 0.00 | 0.00 | 0.00 | 76 | 1018.6 |
| 20260906184228 | 20 | 358 | 14.5 | 14.5 | 0.00 | 0.00 | 0.00 | 73 | 1018.6 |
| 20260906183724 | 19 | 26 | 6.4 | 9.7 | 0.00 | 0.00 | 0.00 | 77 | 1018.4 |
| 20260906183220 | 19 | 42 | 4.8 | 6.4 | 0.00 | 0.00 | 0.00 | 77 | 1018.4 |
| 20260906182720 | 20 | 22 | 17.7 | 17.7 | 0.00 | 0.00 | 0.00 | 76 | 1018.5 |
| 20260906182216 | 19 | 3 | 14.5 | 14.5 | 0.00 | 0.00 | 0.00 | 75 | 1018.6 |
| 20260906181711 | 19 | 6 | 16.1 | 17.7 | 0.00 | 0.00 | 0.00 | 78 | 1018.6 |
| 20260906181208 | 19 | 298 | 3.2 | 3.2 | 0.00 | 0.00 | 0.00 | 78 | 1018.4 |
| 20260906180707 | 20 | 30 | 6.4 | 6.4 | 0.00 | 0.00 | 0.00 | 75 | 1018.7 |
| 20260906180202 | 19 | 355 | 17.7 | 20.9 | 0.00 | 0.00 | 0.00 | 76 | 1018.5 |
| 20260906175700 | 18 | 14 | 9.7 | 16.1 | 0.00 | 0.00 | 0.00 | 77 | 1018.6 |
| 20260906175156 | 19 | 22 | 16.1 | 17.7 | 0.00 | 0.00 | 0.00 | 76 | 1018.6 |
| 20260906174654 | 18 | 8 | 14.5 | 16.1 | 0.00 | 0.00 | 0.00 | 77 | 1018.6 |
| 20260906174149 | 19 | 11 | 17.7 | 20.9 | 0.00 | 0.00 | 0.00 | 78 | 1018.7 |
| 20260906173644 | 20 | 350 | 6.4 | 9.7 | 0.00 | 0.00 | 0.00 | 80 | 1018.5 |
| 20260906173140 | 20 | 310 | 3.2 | 4.8 | 0.00 | 0.00 | 0.00 | 79 | 1018.7 |
| 20260906172639 | 19 | 11 | 14.5 | 14.5 | 0.00 | 0.00 | 0.00 | 78 | 1018.7 |
| 20260906172135 | 19 | 8 | 14.5 | 14.5 | 0.00 | 0.00 | 0.00 | 79 | 1018.7 |
| 20260906171634 | 19 | 6 | 14.5 | 16.1 | 0.00 | 0.00 | 0.00 | 81 | 1018.7 |
| 20260906171130 | 18 | 14 | 17.7 | 17.7 | 0.00 | 0.00 | 0.00 | 79 | 1018.9 |
| 20260906170626 | 20 | 5 | 9.7 | 11.3 | 0.00 | 0.00 | 0.00 | 75 | 1018.6 |
| 20260906170125 | 18 | 25 | 9.7 | 9.7 | 0.00 | 0.00 | 0.00 | 81 | 1018.9 |
| 20260906165621 | 18 | 14 | 11.3 | 11.3 | 0.00 | 0.00 | 0.00 | 81 | 1018.6 |
| 20260906165117 | 20 | 36 | 4.8 | 4.8 | 0.00 | 0.00 | 0.00 | 78 | 1018.6 |
| 20260906164615 | 19 | 9 | 3.2 | 3.2 | 0.00 | 0.00 | 0.00 | 79 | 1018.6 |
| 20260906164111 | 20 | 61 | 8.0 | 9.7 | 0.00 | 0.00 | 0.00 | 77 | 1018.5 |
| 20260906163607 | 19 | 28 | 3.2 | 9.7 | 0.00 | 0.00 | 0.00 | 78 | 1018.7 |
| 20260906163102 | 20 | 5 | 9.7 | 12.9 | 0.00 | 0.00 | 0.00 | 78 | 1018.5 |
| 20260906162600 | 20 | 7 | 11.3 | 14.5 | 0.00 | 0.00 | 0.00 | 77 | 1018.3 |
| 20260906162055 | 20 | 19 | 19.3 | 24.1 | 0.00 | 0.00 | 0.00 | 76 | 1018.4 |
| 20260906161549 | 20 | 23 | 11.3 | 14.5 | 0.00 | 0.00 | 0.00 | 77 | 1018.5 |
| 20260906161048 | 20 | 72 | 1.6 | 3.2 | 0.00 | 0.00 | 0.00 | 75 | 1018.5 |
| 20260906160547 | 20 | 99 | 9.7 | 11.3 | 0.00 | 0.00 | 0.00 | 78 | 1018.5 |
| 20260906160046 | 20 | 354 | 1.6 | 3.2 | 0.00 | 0.00 | 0.00 | 75 | 1018.4 |
| 20260906155543 | 20 | 128 | 3.2 | 4.8 | 0.00 | 0.00 | 0.00 | 77 | 1018.4 |
| 20260906155040 | 19 | 83 | 6.4 | 9.7 | 0.00 | 0.00 | 0.00 | 77 | 1018.5 |
| 20260906154535 | 19 | 9 | 6.4 | 9.7 | 0.00 | 0.00 | 0.00 | 79 | 1018.4 |
| 20260906154034 | 19 | 352 | 14.5 | 14.5 | 0.00 | 0.00 | 0.00 | 79 | 1018.3 |
| 20260906153533 | 19 | 358 | 4.8 | 6.4 | 0.00 | 0.00 | 0.00 | 78 | 1018.2 |
| 20260906153029 | 18 | 25 | 14.5 | 16.1 | 0.00 | 0.00 | 0.00 | 80 | 1018.2 |
| 20260906152528 | 18 | 38 | 16.1 | 20.9 | 0.00 | 0.00 | 0.00 | 81 | 1018.2 |
| 20260906152027 | 20 | 27 | 9.7 | 12.9 | 0.00 | 0.00 | 0.00 | 78 | 1018.4 |
| 20260906151523 | 18 | 18 | 11.3 | 12.9 | 0.00 | 0.00 | 0.00 | 81 | 1018.5 |
| 20260906151024 | 19 | 19 | 11.3 | 22.5 | 0.00 | 0.00 | 0.00 | 79 | 1018.2 |
| 20260906150519 | 20 | 43 | 3.2 | 4.8 | 0.00 | 0.00 | 0.00 | 79 | 1018.4 |
| 20260906150014 | 18 | 25 | 12.9 | 16.1 | 0.00 | 0.00 | 0.00 | 79 | 1018.3 |
| 20260906145513 | 18 | 354 | 11.3 | 14.5 | 0.00 | 0.00 | 0.00 | 82 | 1018.4 |
| 20260906145008 | 18 | 18 | 16.1 | 17.7 | 0.00 | 0.00 | 0.00 | 81 | 1018.2 |
| 20260906144502 | 18 | 8 | 6.4 | 11.3 | 0.00 | 0.00 | 0.00 | 82 | 1018.2 |
| 20260906143957 | 18 | 20 | 16.1 | 17.7 | 0.00 | 0.00 | 0.00 | 82 | 1018.4 |
| 20260906143453 | 19 | 168 | 3.2 | 3.2 | 0.00 | 0.00 | 0.00 | 82 | 1018.4 |
| 20260906142949 | 19 | 47 | 8.0 | 11.3 | 0.00 | 0.00 | 0.00 | 82 | 1018.4 |
| 20260906142442 | 19 | 54 | 8.0 | 11.3 | 0.00 | 0.00 | 0.00 | 80 | 1018.1 |
| 20260906141938 | 18 | 26 | 6.4 | 11.3 | 0.00 | 0.00 | 0.00 | 82 | 1018.3 |
| 20260906141437 | 18 | 11 | 11.3 | 14.5 | 0.00 | 0.00 | 0.00 | 84 | 1018.2 |
| 20260906140938 | 18 | 14 | 14.5 | 17.7 | 0.00 | 0.00 | 0.00 | 83 | 1018.0 |
| 20260906140432 | 18 | 5 | 16.1 | 17.7 | 0.00 | 0.00 | 0.00 | 83 | 1017.9 |
| 20260906135930 | 19 | 32 | 8.0 | 9.7 | 0.00 | 0.00 | 0.00 | 84 | 1017.8 |
| 20260906135429 | 19 | 51 | 12.9 | 14.5 | 0.00 | 0.00 | 0.00 | 83 | 1017.7 |
| 20260906134925 | 18 | 19 | 16.1 | 17.7 | 0.00 | 0.00 | 0.00 | 83 | 1017.8 |
| 20260906134420 | 18 | 34 | 8.0 | 9.7 | 0.00 | 0.00 | 0.00 | 84 | 1017.6 |
| 20260906133915 | 19 | 16 | 9.7 | 12.9 | 0.00 | 0.00 | 0.00 | 81 | 1017.6 |
| 20260906133411 | 20 | 34 | 6.4 | 9.7 | 0.00 | 0.00 | 0.00 | 78 | 1017.7 |
| 20260906132906 | 20 | 347 | 1.6 | 3.2 | 0.00 | 0.00 | 0.00 | 81 | 1017.7 |
| 20260906132401 | 18 | 41 | 8.0 | 11.3 | 0.00 | 0.00 | 0.00 | 81 | 1017.6 |
| 20260906131857 | 18 | 34 | 4.8 | 6.4 | 0.00 | 0.00 | 0.00 | 81 | 1017.6 |
| 20260906131352 | 18 | 5 | 14.5 | 24.1 | 0.00 | 0.00 | 0.00 | 81 | 1017.4 |
| 20260906130848 | 19 | 18 | 4.8 | 6.4 | 0.00 | 0.00 | 0.00 | 81 | 1017.6 |
| 20260906130348 | 19 | 19 | 4.8 | 6.4 | 0.00 | 0.00 | 0.00 | 84 | 1017.6 |
| 20260906125847 | 18 | 16 | 11.3 | 12.9 | 0.00 | 0.00 | 0.00 | 84 | 1017.6 |
| 20260906125344 | 18 | 351 | 14.5 | 16.1 | 0.00 | 0.00 | 0.00 | 84 | 1017.6 |
| 20260906124839 | 18 | 356 | 12.9 | 14.5 | 0.00 | 0.00 | 0.00 | 86 | 1017.3 |
| 20260906124335 | 18 | 21 | 6.4 | 11.3 | 0.00 | 0.00 | 0.00 | 86 | 1017.3 |
| 20260906123834 | 18 | 23 | 14.5 | 16.1 | 0.00 | 0.00 | 0.00 | 87 | 1017.2 |
| 20260906123329 | 18 | 357 | 6.4 | 9.7 | 0.00 | 0.00 | 0.00 | 87 | 1017.4 |
| 20260906122828 | 18 | 23 | 9.7 | 11.3 | 0.00 | 0.00 | 0.00 | 86 | 1017.4 |
| 20260906122323 | 18 | 16 | 6.4 | 11.3 | 0.00 | 0.00 | 0.00 | 86 | 1017.4 |
| 20260906121821 | 18 | 345 | 3.2 | 4.8 | 0.00 | 0.00 | 0.00 | 86 | 1017.2 |
| 20260906121316 | 18 | 12 | 9.7 | 12.9 | 0.00 | 0.00 | 0.00 | 86 | 1017.1 |
| 20260906120812 | 18 | 22 | 16.1 | 17.7 | 0.00 | 0.00 | 0.00 | 86 | 1017.1 |
| 20260906120309 | 18 | 343 | 9.7 | 12.9 | 0.00 | 0.00 | 0.00 | 87 | 1017.1 |
| 20260906115805 | 18 | 24 | 8.0 | 11.3 | 0.00 | 0.00 | 0.00 | 88 | 1017.0 |
| 20260906115300 | 18 | 13 | 8.0 | 9.7 | 0.00 | 0.00 | 0.00 | 87 | 1016.9 |
| 20260906114759 | 18 | 40 | 6.4 | 9.7 | 0.00 | 0.00 | 0.00 | 88 | 1016.6 |
| 20260906114254 | 18 | 9 | 6.4 | 6.4 | 0.00 | 0.00 | 0.00 | 89 | 1016.7 |
| 20260906113749 | 18 | 18 | 9.7 | 11.3 | 0.00 | 0.00 | 0.00 | 88 | 1016.7 |
| 20260906113248 | 18 | 27 | 16.1 | 22.5 | 0.00 | 0.00 | 0.00 | 88 | 1016.5 |
| 20260906112749 | 18 | 9 | 9.7 | 11.3 | 0.00 | 0.00 | 0.00 | 89 | 1016.4 |
| 20260906112245 | 18 | 21 | 11.3 | 12.9 | 0.00 | 0.00 | 0.00 | 89 | 1016.4 |
| 20260906111744 | 18 | 14 | 17.7 | 22.5 | 0.00 | 0.00 | 0.00 | 89 | 1016.2 |
| 20260906111244 | 19 | 2 | 16.1 | 16.1 | 0.00 | 0.00 | 0.00 | 89 | 1016.3 |
| 20260906110739 | 19 | 355 | 9.7 | 9.7 | 0.00 | 0.00 | 0.00 | 88 | 1016.4 |
| 20260906110235 | 19 | 334 | 8.0 | 9.7 | 0.00 | 0.00 | 0.00 | 88 | 1016.3 |
| 20260906105734 | 18 | 355 | 11.3 | 12.9 | 0.00 | 0.00 | 0.00 | 89 | 1016.2 |
| 20260906105231 | 18 | 338 | 3.2 | 4.8 | 0.00 | 0.00 | 0.00 | 90 | 1016.1 |
| 20260906104731 | 18 | 4 | 12.9 | 14.5 | 0.00 | 0.00 | 0.00 | 91 | 1016.1 |
| 20260906104230 | 18 | 349 | 6.4 | 6.4 | 0.00 | 0.00 | 0.00 | 92 | 1016.0 |
| 20260906103727 | 18 | 0 | 6.4 | 9.7 | 0.00 | 0.00 | 0.00 | 92 | 1016.0 |
| 20260906103222 | 18 | 341 | 6.4 | 9.7 | 0.00 | 0.00 | 0.00 | 92 | 1015.9 |
| 20260906102718 | 18 | 352 | 6.4 | 9.7 | 0.00 | 0.00 | 0.00 | 92 | 1015.8 |
| 20260906102217 | 18 | 353 | 8.0 | 11.3 | 0.00 | 0.00 | 0.00 | 92 | 1015.8 |
| 20260906101712 | 18 | 351 | 9.7 | 11.3 | 0.00 | 0.00 | 0.00 | 92 | 1015.6 |
| 20260906101207 | 18 | 2 | 3.2 | 6.4 | 0.00 | 0.00 | 0.00 | 91 | 1015.7 |
| 20260906100703 | 18 | 1 | 8.0 | 9.7 | 0.00 | 0.00 | 0.00 | 92 | 1015.7 |
| 20260906100203 | 18 | 335 | 4.8 | 4.8 | 0.00 | 0.00 | 0.00 | 92 | 1015.6 |
| 20260906095657 | 18 | 355 | 4.8 | 6.4 | 0.00 | 0.00 | 0.00 | 91 | 1015.5 |
| 20260906095153 | 18 | 17 | 6.4 | 6.4 | 0.00 | 0.00 | 0.00 | 92 | 1015.5 |
| 20260906094652 | 18 | 353 | 4.8 | 4.8 | 0.00 | 0.00 | 0.00 | 92 | 1015.3 |
| 20260906094147 | 18 | 329 | 1.6 | 1.6 | 0.00 | 0.00 | 0.00 | 93 | 1015.3 |
| 20260906093644 | 18 | 339 | 3.2 | 3.2 | 0.00 | 0.00 | 0.00 | 93 | 1015.6 |
| 20260906093143 | 18 | 320 | 1.6 | 1.6 | 0.00 | 0.00 | 0.00 | 93 | 1015.4 |
| 20260906092638 | 18 | 323 | 3.2 | 3.2 | 0.00 | 0.00 | 0.00 | 93 | 1015.4 |
| 20260906092138 | 18 | 324 | 1.6 | 1.6 | 0.00 | 0.00 | 0.00 | 94 | 1015.0 |
| 20260906091635 | 18 | 323 | 3.2 | 3.2 | 0.00 | 0.00 | 0.00 | 96 | 1015.1 |
| 20260906091131 | 17 | 334 | 3.2 | 4.8 | 0.00 | 0.00 | 0.00 | 97 | 1015.3 |
| 20260906090626 | 16 | 289 | 0.0 | 0.0 | 0.00 | 0.00 | 0.00 | 97 | 1015.2 |
| 20260906090120 | 16 | 294 | 0.0 | 0.0 | 0.00 | 0.00 | 0.00 | 97 | 1015.1 |
| 20260906085619 | 16 | 297 | 0.0 | 0.0 | 0.00 | 0.00 | 0.00 | 97 | 1014.8 |
| 20260906085114 | 16 | 296 | 0.0 | 0.0 | 0.00 | 0.00 | 0.00 | 97 | 1014.8 |
| 20260906084609 | 16 | 296 | 0.0 | 0.0 | 0.00 | 0.00 | 0.00 | 96 | 1014.9 |
| 20260906084108 | 16 | 304 | 0.0 | 0.0 | 0.00 | 0.00 | 0.00 | 96 | 1014.8 |
| 20260906083603 | 16 | 310 | 0.0 | 0.0 | 0.00 | 0.00 | 0.00 | 96 | 1014.8 |
| 20260906083102 | 16 | 311 | 0.0 | 0.0 | 0.00 | 0.00 | 0.00 | 97 | 1014.7 |
| 20260906082553 | 16 | 307 | 0.0 | 0.0 | 0.00 | 0.00 | 0.00 | 96 | 1014.7 |
| 20260906082048 | 17 | 308 | 0.0 | 0.0 | 0.00 | 0.00 | 0.00 | 96 | 1014.5 |
| 20260906081544 | 17 | 306 | 0.0 | 0.0 | 0.00 | 0.00 | 0.00 | 96 | 1014.7 |
| 20260906081039 | 16 | 293 | 0.0 | 0.0 | 0.00 | 0.00 | 0.00 | 96 | 1014.6 |
| 20260906080536 | 17 | 292 | 0.0 | 0.0 | 0.00 | 0.00 | 0.00 | 96 | 1014.6 |
| 20260906080031 | 17 | 292 | 0.0 | 0.0 | 0.00 | 0.00 | 0.00 | 96 | 1014.6 |
| 20260906075526 | 17 | 303 | 0.0 | 0.0 | 0.00 | 0.00 | 0.00 | 96 | 1014.9 |
| 20260906075020 | 16 | 288 | 0.0 | 0.0 | 0.00 | 0.00 | 0.00 | 97 | 1014.5 |
| 20260906074515 | 17 | 288 | 0.0 | 0.0 | 0.00 | 0.00 | 0.00 | 96 | 1014.5 |
| 20260906074014 | 16 | 288 | 0.0 | 0.0 | 0.00 | 0.00 | 0.00 | 96 | 1014.5 |
| 20260906073509 | 16 | 288 | 0.0 | 0.0 | 0.00 | 0.00 | 0.00 | 96 | 1014.5 |
| 20260906073005 | 16 | 288 | 0.0 | 0.0 | 0.00 | 0.00 | 0.00 | 96 | 1014.5 |
| 20260906072500 | 16 | 288 | 0.0 | 0.0 | 0.00 | 0.00 | 0.00 | 96 | 1014.7 |
| 20260906071955 | 16 | 288 | 0.0 | 0.0 | 0.00 | 0.00 | 0.00 | 96 | 1014.7 |
| 20260906071452 | 16 | 288 | 0.0 | 0.0 | 0.00 | 0.00 | 0.00 | 96 | 1014.4 |
| 20260906070947 | 17 | 288 | 0.0 | 0.0 | 0.00 | 0.00 | 0.00 | 95 | 1014.6 |
| 20260906070442 | 17 | 286 | 0.0 | 0.0 | 0.00 | 0.00 | 0.00 | 95 | 1014.7 |
| 20260906065938 | 17 | 286 | 0.0 | 0.0 | 0.00 | 0.00 | 0.00 | 94 | 1014.5 |
| 20260906065432 | 17 | 286 | 0.0 | 0.0 | 0.00 | 0.00 | 0.00 | 94 | 1014.7 |
| 20260906064928 | 17 | 286 | 0.0 | 0.0 | 0.00 | 0.00 | 0.00 | 93 | 1014.5 |
| 20260906064424 | 17 | 286 | 0.0 | 0.0 | 0.00 | 0.00 | 0.00 | 93 | 1014.6 |
| 20260906063924 | 17 | 286 | 0.0 | 0.0 | 0.00 | 0.00 | 0.00 | 93 | 1014.6 |
| 20260906063419 | 17 | 286 | 0.0 | 0.0 | 0.00 | 0.00 | 0.00 | 93 | 1014.7 |
| 20260906062915 | 17 | 285 | 0.0 | 1.6 | 0.00 | 0.00 | 0.00 | 93 | 1014.7 |
| 20260906062414 | 17 | 303 | 0.0 | 0.0 | 0.00 | 0.00 | 0.00 | 93 | 1014.6 |
| 20260906061909 | 17 | 303 | 0.0 | 0.0 | 0.00 | 0.00 | 0.00 | 93 | 1014.6 |
| 20260906061406 | 17 | 303 | 0.0 | 0.0 | 0.00 | 0.00 | 0.00 | 92 | 1014.6 |
| 20260906060859 | 17 | 303 | 0.0 | 0.0 | 0.00 | 0.00 | 0.00 | 92 | 1014.5 |
| 20260906060357 | 17 | 303 | 0.0 | 0.0 | 0.00 | 0.00 | 0.00 | 91 | 1014.5 |
| 20260906055853 | 18 | 303 | 0.0 | 0.0 | 0.00 | 0.00 | 0.00 | 90 | 1014.6 |
| 20260906055349 | 18 | 304 | 0.0 | 0.0 | 0.00 | 0.00 | 0.00 | 88 | 1014.7 |
| 20260906054843 | 18 | 303 | 0.0 | 0.0 | 0.00 | 0.00 | 0.00 | 88 | 1014.6 |
| 20260906054338 | 18 | 294 | 0.0 | 0.0 | 0.00 | 0.00 | 0.00 | 87 | 1014.6 |
| 20260906053835 | 18 | 310 | 0.0 | 0.0 | 0.00 | 0.00 | 0.00 | 85 | 1014.7 |
| 20260906053330 | 18 | 302 | 0.0 | 0.0 | 0.00 | 0.00 | 0.00 | 85 | 1014.4 |
| 20260906052826 | 18 | 306 | 0.0 | 0.0 | 0.00 | 0.00 | 0.00 | 84 | 1014.6 |
| 20260906052322 | 19 | 300 | 0.0 | 0.0 | 0.00 | 0.00 | 0.00 | 84 | 1014.6 |
| 20260906051819 | 19 | 304 | 0.0 | 0.0 | 0.00 | 0.00 | 0.00 | 83 | 1014.6 |
| 20260906051318 | 20 | 319 | 1.6 | 1.6 | 0.00 | 0.00 | 0.00 | 83 | 1014.8 |
| 20260906050814 | 20 | 307 | 0.0 | 0.0 | 0.00 | 0.00 | 0.00 | 83 | 1014.7 |
| 20260906050309 | 20 | 327 | 1.6 | 1.6 | 0.00 | 0.00 | 0.00 | 82 | 1014.6 |
| 20260906045808 | 20 | 337 | 3.2 | 3.2 | 0.00 | 0.00 | 0.00 | 82 | 1014.5 |
| 20260906045305 | 20 | 323 | 1.6 | 1.6 | 0.00 | 0.00 | 0.00 | 83 | 1014.5 |
| 20260906044759 | 20 | 349 | 3.2 | 4.8 | 0.00 | 0.00 | 0.00 | 83 | 1014.5 |
| 20260906044253 | 20 | 337 | 1.6 | 1.6 | 0.00 | 0.00 | 0.00 | 83 | 1014.5 |
| 20260906043749 | 20 | 359 | 3.2 | 4.8 | 0.00 | 0.00 | 0.00 | 82 | 1014.5 |
| 20260906043245 | 20 | 338 | 1.6 | 3.2 | 0.00 | 0.00 | 0.00 | 83 | 1014.5 |
| 20260906042744 | 20 | 354 | 4.8 | 6.4 | 0.00 | 0.00 | 0.00 | 82 | 1014.4 |
| 20260906042244 | 20 | 355 | 4.8 | 4.8 | 0.00 | 0.00 | 0.00 | 83 | 1014.3 |
| 20260906041739 | 20 | 347 | 6.4 | 6.4 | 0.00 | 0.00 | 0.00 | 83 | 1014.4 |
| 20260906041234 | 20 | 358 | 6.4 | 6.4 | 0.00 | 0.00 | 0.00 | 85 | 1014.3 |
| 20260906040730 | 20 | 343 | 4.8 | 4.8 | 0.00 | 0.00 | 0.00 | 86 | 1014.3 |
| 20260906040225 | 20 | 349 | 6.4 | 6.4 | 0.00 | 0.00 | 0.00 | 87 | 1014.2 |
| 20260906035720 | 20 | 338 | 3.2 | 4.8 | 0.00 | 0.00 | 0.00 | 87 | 1014.4 |
| 20260906035216 | 20 | 350 | 4.8 | 6.4 | 0.00 | 0.00 | 0.00 | 87 | 1014.4 |
| 20260906034716 | 20 | 342 | 4.8 | 4.8 | 0.00 | 0.00 | 0.00 | 87 | 1014.4 |
| 20260906034210 | 20 | 356 | 4.8 | 4.8 | 0.00 | 0.00 | 0.00 | 88 | 1014.3 |
| 20260906033706 | 19 | 345 | 3.2 | 3.2 | 0.00 | 0.00 | 0.00 | 88 | 1014.3 |
| 20260906033201 | 19 | 321 | 1.6 | 1.6 | 0.00 | 0.00 | 0.00 | 91 | 1014.4 |
| 20260906032658 | 18 | 317 | 0.0 | 0.0 | 0.00 | 0.00 | 0.00 | 93 | 1014.5 |
| 20260906032158 | 18 | 305 | 0.0 | 0.0 | 0.00 | 0.00 | 0.00 | 94 | 1014.4 |
| 20260906031653 | 18 | 305 | 0.0 | 0.0 | 0.00 | 0.00 | 0.00 | 95 | 1014.4 |
| 20260906031148 | 18 | 301 | 0.0 | 0.0 | 0.00 | 0.00 | 0.00 | 95 | 1014.5 |
| 20260906030648 | 17 | 298 | 0.0 | 0.0 | 0.00 | 0.00 | 0.00 | 95 | 1014.2 |
| 20260906030143 | 17 | 303 | 0.0 | 0.0 | 0.00 | 0.00 | 0.00 | 95 | 1014.1 |
| 20260906025642 | 17 | 303 | 0.0 | 0.0 | 0.00 | 0.00 | 0.00 | 96 | 1014.1 |
| 20260906025142 | 17 | 300 | 0.0 | 0.0 | 0.00 | 0.00 | 0.00 | 96 | 1014.1 |
| 20260906024636 | 17 | 290 | 0.0 | 0.0 | 0.00 | 0.00 | 0.00 | 96 | 1014.1 |
| 20260906024130 | 17 | 290 | 0.0 | 0.0 | 0.00 | 0.00 | 0.00 | 96 | 1014.3 |
| 20260906023627 | 17 | 290 | 0.0 | 0.0 | 0.00 | 0.00 | 0.00 | 96 | 1014.2 |
| 20260906023126 | 17 | 290 | 0.0 | 0.0 | 0.00 | 0.00 | 0.00 | 95 | 1014.1 |
| 20260906022622 | 17 | 290 | 0.0 | 0.0 | 0.00 | 0.00 | 0.00 | 95 | 1014.0 |
| 20260906022117 | 17 | 290 | 0.0 | 0.0 | 0.00 | 0.00 | 0.00 | 95 | 1014.0 |
| 20260906021613 | 17 | 290 | 0.0 | 0.0 | 0.00 | 0.00 | 0.00 | 95 | 1014.0 |
| 20260906021111 | 17 | 289 | 0.0 | 0.0 | 0.00 | 0.00 | 0.00 | 95 | 1013.9 |
| 20260906020611 | 17 | 289 | 0.0 | 0.0 | 0.00 | 0.00 | 0.00 | 94 | 1013.9 |
| 20260906020106 | 17 | 288 | 0.0 | 0.0 | 0.00 | 0.00 | 0.00 | 94 | 1014.1 |
| 20260906015605 | 17 | 294 | 0.0 | 0.0 | 0.00 | 0.00 | 0.00 | 94 | 1014.2 |
| 20260906015105 | 17 | 290 | 0.0 | 0.0 | 0.00 | 0.00 | 0.00 | 94 | 1014.0 |
| 20260906014559 | 17 | 295 | 0.0 | 0.0 | 0.00 | 0.00 | 0.00 | 94 | 1014.0 |
| 20260906014056 | 17 | 295 | 0.0 | 0.0 | 0.00 | 0.00 | 0.00 | 93 | 1013.9 |
| 20260906013551 | 18 | 299 | 0.0 | 0.0 | 0.00 | 0.00 | 0.00 | 93 | 1013.9 |
| 20260906013046 | 18 | 297 | 0.0 | 0.0 | 0.00 | 0.00 | 0.00 | 93 | 1013.8 |
| 20260906012541 | 18 | 297 | 0.0 | 0.0 | 0.00 | 0.00 | 0.00 | 92 | 1013.8 |
| 20260906012040 | 18 | 297 | 0.0 | 0.0 | 0.00 | 0.00 | 0.00 | 92 | 1013.9 |
| 20260906011537 | 18 | 297 | 0.0 | 0.0 | 0.00 | 0.00 | 0.00 | 92 | 1013.8 |
| 20260906011036 | 18 | 297 | 0.0 | 0.0 | 0.00 | 0.00 | 0.00 | 91 | 1013.9 |
| 20260906010532 | 18 | 297 | 0.0 | 0.0 | 0.00 | 0.00 | 0.00 | 91 | 1013.8 |
| 20260906010028 | 18 | 297 | 0.0 | 0.0 | 0.00 | 0.00 | 0.00 | 90 | 1013.7 |
| 20260906005527 | 18 | 297 | 0.0 | 0.0 | 0.00 | 0.00 | 0.00 | 90 | 1013.8 |
| 20260906005026 | 18 | 298 | 0.0 | 0.0 | 0.00 | 0.00 | 0.00 | 90 | 1013.8 |
| 20260906004520 | 18 | 299 | 0.0 | 0.0 | 0.00 | 0.00 | 0.00 | 89 | 1013.7 |
| 20260906004015 | 19 | 309 | 0.0 | 0.0 | 0.00 | 0.00 | 0.00 | 88 | 1013.5 |
| 20260906003511 | 19 | 317 | 1.6 | 1.6 | 0.00 | 0.00 | 0.00 | 86 | 1013.6 |
| 20260906003007 | 19 | 317 | 3.2 | 3.2 | 0.00 | 0.00 | 0.00 | 86 | 1013.7 |
| 20260906002507 | 19 | 302 | 0.0 | 0.0 | 0.00 | 0.00 | 0.00 | 86 | 1013.7 |
| 20260906002001 | 19 | 291 | 0.0 | 0.0 | 0.00 | 0.00 | 0.00 | 87 | 1013.7 |
| 20260906001457 | 19 | 291 | 0.0 | 0.0 | 0.00 | 0.00 | 0.00 | 86 | 1013.7 |
| 20260906000952 | 19 | 291 | 0.0 | 0.0 | 0.00 | 0.00 | 0.00 | 85 | 1013.9 |
| 20260906000448 | 20 | 291 | 0.0 | 0.0 | 0.00 | 0.00 | 0.00 | 84 | 1013.7 |
| 20260905235948 | 20 | 291 | 0.0 | 0.0 | 0.00 | 0.00 | 0.00 | 84 | 1013.7 |
| 20260905235442 | 20 | 291 | 0.0 | 0.0 | 0.00 | 0.00 | 0.00 | 84 | 1013.7 |
| 20260905234937 | 20 | 293 | 0.0 | 0.0 | 0.00 | 0.00 | 0.00 | 83 | 1013.8 |
| 20260905234433 | 20 | 291 | 0.0 | 0.0 | 0.00 | 0.00 | 0.00 | 83 | 1013.8 |
| 20260905233932 | 20 | 291 | 0.0 | 0.0 | 0.00 | 0.00 | 0.00 | 83 | 1013.9 |
| 20260905233428 | 20 | 291 | 0.0 | 0.0 | 0.00 | 0.00 | 0.00 | 82 | 1013.7 |
| 20260905232926 | 20 | 296 | 0.0 | 0.0 | 0.00 | 0.00 | 0.00 | 82 | 1013.8 |
| 20260905232423 | 20 | 298 | 0.0 | 0.0 | 0.00 | 0.00 | 0.00 | 81 | 1013.8 |
| 20260905231918 | 20 | 325 | 3.2 | 3.2 | 0.00 | 0.00 | 0.00 | 80 | 1013.8 |
| 20260905231414 | 20 | 298 | 1.6 | 1.6 | 0.00 | 0.00 | 0.00 | 80 | 1013.9 |
| 20260905230910 | 20 | 313 | 1.6 | 3.2 | 0.00 | 0.00 | 0.00 | 79 | 1013.7 |
| 20260905230409 | 21 | 284 | 1.6 | 1.6 | 0.00 | 0.00 | 0.00 | 79 | 1013.8 |
| 20260905225907 | 21 | 303 | 1.6 | 1.6 | 0.00 | 0.00 | 0.00 | 78 | 1013.9 |
| 20260905225402 | 21 | 323 | 1.6 | 1.6 | 0.00 | 0.00 | 0.00 | 80 | 1013.8 |
| 20260905224857 | 20 | 313 | 1.6 | 3.2 | 0.00 | 0.00 | 0.00 | 81 | 1013.8 |
| 20260905224353 | 21 | 293 | 0.0 | 1.6 | 0.00 | 0.00 | 0.00 | 80 | 1013.8 |
| 20260905223848 | 21 | 303 | 1.6 | 3.2 | 0.00 | 0.00 | 0.00 | 80 | 1014.0 |
| 20260905223346 | 20 | 302 | 1.6 | 3.2 | 0.00 | 0.00 | 0.00 | 81 | 1013.9 |
| 20260905222845 | 20 | 328 | 3.2 | 3.2 | 0.00 | 0.00 | 0.00 | 81 | 1013.8 |
| 20260905222344 | 20 | 287 | 6.4 | 9.7 | 0.00 | 0.00 | 0.00 | 80 | 1014.0 |
| 20260905221840 | 20 | 0 | 9.7 | 11.3 | 0.00 | 0.00 | 0.00 | 80 | 1013.7 |
| 20260905221337 | 20 | 14 | 9.7 | 9.7 | 0.00 | 0.00 | 0.00 | 80 | 1013.8 |
| 20260905220833 | 21 | 357 | 6.4 | 6.4 | 0.00 | 0.00 | 0.00 | 79 | 1013.8 |
| 20260905220329 | 21 | 323 | 4.8 | 4.8 | 0.00 | 0.00 | 0.00 | 79 | 1013.7 |
| 20260905215828 | 21 | 334 | 4.8 | 4.8 | 0.00 | 0.00 | 0.00 | 80 | 1013.6 |
| 20260905215323 | 20 | 353 | 6.4 | 9.7 | 0.00 | 0.00 | 0.00 | 81 | 1013.4 |
| 20260905214820 | 20 | 342 | 4.8 | 4.8 | 0.00 | 0.00 | 0.00 | 80 | 1013.4 |
| 20260905214315 | 21 | 330 | 8.0 | 9.7 | 0.00 | 0.00 | 0.00 | 79 | 1013.6 |
| 20260905213810 | 21 | 359 | 6.4 | 11.3 | 0.00 | 0.00 | 0.00 | 79 | 1013.6 |